KNFL

Fallon NAS (Van Voorhis Field) Airport

Fallon, Nevada, USA
METAR KNFL 182256Z VRB05KT 6SM HZ FEW100 SCT250 36/M03 A3012 RMK AO2 SLP166 FU FEW100 HZ ALQDS T03561028
Observed Flight Rules
Aug-18 @ 22:56 UTC (49 minutes ago) Visual Flight Rules
Wind Visibility Clouds Conditions
Variable at 5 knots 6 miles
  • Few at 10,000' AGL
  • Scattered at 25,000' AGL
  • Haze
Temperatures Readings
Current 36°C / 97°F
Dewpoint -3°C / 27°F
Humidity 8%
Altimeter 30.12" Hg
Pressure 1016.6 hPa
Elevation 1199
METAR KNFL 182256Z VRB05KT 6SM HZ FEW100 SCT250 36/M03 A3012 RMK AO2 SLP166 FU FEW100 HZ ALQDS T03561028
Observed Flight Rules
Aug-18 @ 22:56 UTC
(49 minutes ago)
VFR
Wind Visibility
Variable at 5 knots 6 miles
Clouds
  • Few at 10,000' AGL
  • Scattered at 25,000' AGL
Conditions
  • Haze
Temperature Dewpoint
36°C / 97°F -3°C / 27°F
Humidity Altimeter Pressure
8% 30.12" Hg 1016.6 hPa